WATT

Kupang/El Tari Airport

Airport
ICAO code
WATT
IATA Code
KOE
Summary
ICAO Region
APAC
ICAO Territory
Location

Kupang, Nusa Tenggara Timur

Serving
Kupang
Elevation
335 ft
Coordinates
10° 10' 18" S , 123° 40' 16" E
Metar
WATT 190500Z 09009KT 9999 SCT016 BKN080 32/26 Q1008 NOSIG

El Tari International Airport is an airport in Kupang, East Nusa Tenggara, Indonesia.

Airport map

Aerial View

SKYbrary Partners:

Safety knowledge contributed by: